Time;durP1;ratioP1;P1;durP2;ratioP2;P2;SDS_P1;SDS_P2;PMS_P1;PMS_P2;Temp;Humidity;BMP_temperature;BMP_pressure;BME280_temperature;BME280_humidity;BME280_pressure;Samples;Min_cycle;Max_cycle;Signal;HPM_P1;HPM_P2
2022/11/10 00:01:46;;;;;;;3.97;1.45;;;;;;;;;;4796979;29;20047;-76
2022/11/10 00:04:34;;;;;;;5.07;1.08;;;;;;;;;;4794827;29;20403;-75
2022/11/10 00:07:27;;;;;;;2.20;0.90;;;;;;;;;;4800619;29;20050;-76
2022/11/10 00:10:16;;;;;;;2.60;1.02;;;;;;;;;;4801809;29;20051;-73
2022/11/10 00:13:04;;;;;;;2.97;1.02;;;;;;;;;;4788480;29;20055;-73
2022/11/10 00:18:59;;;;;;;3.97;1.02;;;;;;;;;;4784807;29;20047;-75
2022/11/10 00:21:47;;;;;;;;;;;;;;;;;;4784262;29;20043;-76
2022/11/10 00:24:35;;;;;;;3.28;0.95;;;;;;;;;;4782568;30;19922;-74
2022/11/10 00:27:23;;;;;;;4.78;0.80;;;;;;;;;;4783174;29;20496;-75
2022/11/10 00:30:12;;;;;;;4.20;1.20;;;;;;;;;;4781624;29;20492;-76
2022/11/10 00:33:01;;;;;;;6.80;1.42;;;;;;;;;;4786061;29;20507;-76
2022/11/10 00:35:49;;;;;;;4.18;1.17;;;;;;;;;;4784923;29;20059;-75
2022/11/10 00:38:37;;;;;;;3.72;0.88;;;;;;;;;;4781688;29;20051;-74
2022/11/10 00:41:25;;;;;;;8.32;1.50;;;;;;;;;;4786285;29;20052;-76
2022/11/10 00:44:13;;;;;;;5.82;1.95;;;;;;;;;;4783893;29;21088;-77
2022/11/10 00:47:02;;;;;;;3.92;1.00;;;;;;;;;;4781893;30;20063;-76
2022/11/10 00:49:49;;;;;;;;;;;;;;;;;;4785968;30;20048;-75
2022/11/10 00:52:38;;;;;;;7.03;1.10;;;;;;;;;;4784366;30;19921;-75
2022/11/10 00:55:26;;;;;;;6.78;1.20;;;;;;;;;;4782258;30;20047;-74
2022/11/10 00:58:14;;;;;;;6.05;1.40;;;;;;;;;;4785597;30;20415;-74
2022/11/10 01:01:04;;;;;;;4.90;1.45;;;;;;;;;;4783815;30;20047;-76
2022/11/10 01:03:53;;;;;;;6.47;1.85;;;;;;;;;;4781873;30;20067;-76
2022/11/10 01:06:42;;;;;;;5.75;1.52;;;;;;;;;;4785338;30;20055;-75
2022/11/10 01:09:30;;;;;;;6.07;1.30;;;;;;;;;;4783253;30;20059;-73
2022/11/10 01:12:18;;;;;;;8.98;1.70;;;;;;;;;;4781454;30;20051;-76
2022/11/10 01:15:06;;;;;;;;;;;;;;;;;;4786296;30;20059;-74
2022/11/10 01:17:55;;;;;;;5.47;0.90;;;;;;;;;;4783825;30;19925;-73
2022/11/10 01:20:48;;;;;;;4.40;0.95;;;;;;;;;;4780956;30;20059;-72
2022/11/10 01:23:37;;;;;;;2.13;1.10;;;;;;;;;;4784387;30;20060;-73
2022/11/10 01:26:25;;;;;;;2.65;0.70;;;;;;;;;;4785804;29;20452;-71
2022/11/10 01:29:14;;;;;;;3.03;1.00;;;;;;;;;;4789540;29;20055;-72
2022/11/10 01:32:02;;;;;;;9.35;0.90;;;;;;;;;;4787523;29;20499;-75
2022/11/10 01:34:51;;;;;;;3.45;0.77;;;;;;;;;;4784447;29;20051;-73
2022/11/10 01:37:39;;;;;;;7.88;0.93;;;;;;;;;;4788543;29;20412;-74
2022/11/10 01:40:27;;;;;;;;;;;;;;;;;;4788066;29;20055;-73
2022/11/10 01:43:15;;;;;;;3.60;1.00;;;;;;;;;;4785746;29;19925;-75
2022/11/10 01:46:06;;;;;;;5.88;1.23;;;;;;;;;;4789343;29;20055;-74
2022/11/10 01:49:01;;;;;;;3.70;0.77;;;;;;;;;;4786974;29;20055;-74
2022/11/10 01:51:58;;;;;;;4.65;0.90;;;;;;;;;;4784136;29;20052;-72
2022/11/10 01:54:49;;;;;;;3.75;1.00;;;;;;;;;;4787639;29;20063;-73
2022/11/10 01:57:37;;;;;;;4.43;1.10;;;;;;;;;;4785891;29;20059;-73
2022/11/10 02:00:26;;;;;;;5.32;1.27;;;;;;;;;;4784334;29;20480;-73
2022/11/10 02:03:18;;;;;;;;;;;;;;;;;;4788101;29;20051;-74
2022/11/10 02:06:08;;;;;;;6.43;1.40;;;;;;;;;;4784151;29;19925;-72
2022/11/10 02:08:59;;;;;;;6.50;1.50;;;;;;;;;;4788473;29;20059;-74
2022/11/10 02:11:51;;;;;;;6.60;1.08;;;;;;;;;;4786806;29;20056;-72
2022/11/10 02:14:41;;;;;;;4.40;1.17;;;;;;;;;;4784619;29;20055;-72
2022/11/10 02:17:29;;;;;;;3.25;0.95;;;;;;;;;;4787647;29;20055;-74
2022/11/10 02:20:19;;;;;;;;;;;;;;;;;;4786851;29;20052;-74
2022/11/10 02:23:33;;;;;;;5.28;1.17;;;;;;;;;;4784524;29;19926;-71
2022/11/10 02:26:25;;;;;;;2.92;0.98;;;;;;;;;;4783844;29;20047;-74
2022/11/10 02:29:14;;;;;;;3.67;1.10;;;;;;;;;;4784268;29;20055;-74
2022/11/10 02:32:02;;;;;;;4.60;0.85;;;;;;;;;;4787880;29;20403;-73
2022/11/10 02:34:50;;;;;;;11.50;1.27;;;;;;;;;;4786424;29;20503;-72
2022/11/10 02:37:39;;;;;;;1.77;1.10;;;;;;;;;;4783844;29;20059;-72
2022/11/10 02:40:27;;;;;;;3.95;1.02;;;;;;;;;;4787955;29;20059;-72
2022/11/10 02:43:17;;;;;;;5.47;1.10;;;;;;;;;;4785632;29;20047;-74
2022/11/10 02:46:06;;;;;;;5.22;1.17;;;;;;;;;;4783519;29;20059;-72
2022/11/10 02:48:54;;;;;;;;;;;;;;;;;;4787808;29;20043;-74
2022/11/10 02:51:43;;;;;;;7.53;1.00;;;;;;;;;;4785954;29;19925;-74
2022/11/10 02:54:31;;;;;;;4.40;0.98;;;;;;;;;;4788422;29;20059;-75
2022/11/10 02:57:20;;;;;;;9.32;1.30;;;;;;;;;;4786378;29;20055;-73
2022/11/10 03:00:09;;;;;;;8.20;1.00;;;;;;;;;;4784993;29;20043;-74
2022/11/10 03:03:00;;;;;;;5.72;0.95;;;;;;;;;;4787085;29;20479;-74
2022/11/10 03:05:48;;;;;;;7.20;1.00;;;;;;;;;;4786394;29;20524;-72
2022/11/10 03:08:38;;;;;;;6.15;1.30;;;;;;;;;;4783447;29;20238;-73
2022/11/10 03:11:26;;;;;;;5.03;1.10;;;;;;;;;;4787886;29;20063;-76
2022/11/10 03:14:18;;;;;;;7.47;1.50;;;;;;;;;;4785931;29;20055;-72
2022/11/10 03:17:06;;;;;;;5.18;1.00;;;;;;;;;;4783004;29;20044;-74
2022/11/10 03:19:55;;;;;;;8.30;1.23;;;;;;;;;;4787157;29;20496;-72
2022/11/10 03:22:43;;;;;;;6.55;1.50;;;;;;;;;;4785498;29;20047;-72
2022/11/10 03:25:32;;;;;;;4.43;1.08;;;;;;;;;;4782611;29;20442;-72
2022/11/10 03:28:20;;;;;;;6.32;1.10;;;;;;;;;;4785917;29;20051;-72
2022/11/10 03:31:09;;;;;;;2.15;0.90;;;;;;;;;;4783265;29;20063;-73
2022/11/10 03:33:57;;;;;;;2.15;0.73;;;;;;;;;;4782189;29;20411;-72
2022/11/10 03:36:44;;;;;;;;;;;;;;;;;;4785169;29;20431;-74
2022/11/10 03:39:33;;;;;;;6.75;0.95;;;;;;;;;;4784199;29;19937;-73
2022/11/10 03:42:23;;;;;;;2.97;0.90;;;;;;;;;;4782471;29;20067;-72
2022/11/10 03:45:13;;;;;;;10.95;1.05;;;;;;;;;;4785085;29;20519;-73
2022/11/10 03:48:01;;;;;;;5.45;1.05;;;;;;;;;;4783008;29;20847;-73
2022/11/10 03:50:53;;;;;;;;;;;;;;;;;;4782406;29;20723;-74
2022/11/10 03:53:42;;;;;;;3.15;0.82;;;;;;;;;;4784596;29;19925;-74
2022/11/10 03:56:30;;;;;;;2.15;0.82;;;;;;;;;;4781885;29;20051;-74
2022/11/10 03:59:19;;;;;;;2.55;0.90;;;;;;;;;;4785653;29;20063;-73
2022/11/10 04:02:07;;;;;;;2.13;1.13;;;;;;;;;;4784703;29;20051;-73
2022/11/10 04:11:08;;;;;;;1.75;0.65;;;;;;;;;;4782591;29;20059;-73
2022/11/10 04:17:03;;;;;;;2.90;0.88;;;;;;;;;;4783381;29;20063;-72
2022/11/10 04:19:51;;;;;;;7.95;1.20;;;;;;;;;;4781970;29;20059;-75
2022/11/10 04:26:27;;;;;;;6.63;1.57;;;;;;;;;;4708600;29;2255471;-74
2022/11/10 04:29:00;;;;;;;2.80;0.77;;;;;;;;;;4785605;29;20411;-74
2022/11/10 04:31:48;;;;;;;3.33;1.00;;;;;;;;;;4783950;29;20352;-73
2022/11/10 04:34:36;;;;;;;;;;;;;;;;;;4787232;29;20059;-72
2022/11/10 04:37:24;;;;;;;5.80;1.20;;;;;;;;;;4784783;29;19925;-74
2022/11/10 04:40:12;;;;;;;3.78;1.10;;;;;;;;;;4782528;29;20514;-73
2022/11/10 04:43:01;;;;;;;5.72;1.38;;;;;;;;;;4786243;29;20060;-72
2022/11/10 04:45:49;;;;;;;6.90;1.52;;;;;;;;;;4784575;29;20055;-73
2022/11/10 04:48:37;;;;;;;6.53;1.15;;;;;;;;;;4782881;30;20048;-72
2022/11/10 04:51:28;;;;;;;11.00;1.33;;;;;;;;;;4786542;30;20047;-73
2022/11/10 04:54:16;;;;;;;5.70;1.35;;;;;;;;;;4784189;30;20051;-73
2022/11/10 04:57:05;;;;;;;3.65;1.50;;;;;;;;;;4782883;30;20055;-72
2022/11/10 04:59:53;;;;;;;2.65;0.73;;;;;;;;;;4785835;29;20051;-72
2022/11/10 05:02:42;;;;;;;3.22;1.10;;;;;;;;;;4786543;29;20056;-72
2022/11/10 05:05:29;;;;;;;3.50;0.90;;;;;;;;;;4785374;29;20051;-73
2022/11/10 05:08:18;;;;;;;2.63;0.93;;;;;;;;;;4787855;29;20055;-74
2022/11/10 05:11:07;;;;;;;2.97;1.10;;;;;;;;;;4787567;29;20048;-73
2022/11/10 05:13:55;;;;;;;4.68;0.80;;;;;;;;;;4785011;29;20047;-73
2022/11/10 05:16:43;;;;;;;2.50;1.10;;;;;;;;;;4789033;29;20043;-74
2022/11/10 05:19:32;;;;;;;5.88;1.10;;;;;;;;;;4786674;29;20059;-73
2022/11/10 05:22:20;;;;;;;4.75;1.02;;;;;;;;;;4784871;29;20530;-74
2022/11/10 05:25:08;;;;;;;5.60;0.68;;;;;;;;;;4788696;29;20063;-74
2022/11/10 05:27:57;;;;;;;7.05;1.05;;;;;;;;;;4786689;29;20055;-73
2022/11/10 05:30:45;;;;;;;;;;;;;;;;;;4785307;29;20055;-73
2022/11/10 05:33:34;;;;;;;2.83;0.80;;;;;;;;;;4788579;29;20322;-74
2022/11/10 05:36:22;;;;;;;4.55;1.00;;;;;;;;;;4786494;29;20059;-74
2022/11/10 05:39:10;;;;;;;4.95;1.15;;;;;;;;;;4784348;29;20055;-73
2022/11/10 05:41:59;;;;;;;9.23;1.60;;;;;;;;;;4787654;29;20533;-73
2022/11/10 05:44:47;;;;;;;10.73;1.17;;;;;;;;;;4786177;29;20051;-73
2022/11/10 05:47:38;;;;;;;2.33;0.90;;;;;;;;;;4789175;29;20055;-73
2022/11/10 05:50:26;;;;;;;1.75;0.88;;;;;;;;;;4787115;29;20785;-74
2022/11/10 05:53:15;;;;;;;2.95;0.82;;;;;;;;;;4785805;29;20484;-73
2022/11/10 05:56:03;;;;;;;2.30;0.82;;;;;;;;;;4788987;29;20055;-73
2022/11/10 05:58:52;;;;;;;4.30;0.80;;;;;;;;;;4787017;29;20059;-73
2022/11/10 06:01:40;;;;;;;6.80;0.93;;;;;;;;;;4784548;29;20051;-73
2022/11/10 06:04:28;;;;;;;4.03;0.90;;;;;;;;;;4788463;29;20059;-73
2022/11/10 06:07:16;;;;;;;;;;;;;;;;;;4787422;29;20492;-73
2022/11/10 06:10:05;;;;;;;3.88;1.10;;;;;;;;;;4784612;29;19925;-73
2022/11/10 06:12:54;;;;;;;4.00;0.75;;;;;;;;;;4788209;29;20040;-73
2022/11/10 06:15:42;;;;;;;2.80;0.93;;;;;;;;;;4786862;29;20060;-73
2022/11/10 06:18:36;;;;;;;4.68;1.08;;;;;;;;;;4784394;29;20051;-73
2022/11/10 06:21:24;;;;;;;5.32;1.08;;;;;;;;;;4788161;29;20055;-71
2022/11/10 06:24:13;;;;;;;6.13;1.23;;;;;;;;;;4783297;30;20047;-74
2022/11/10 06:27:02;;;;;;;7.75;1.30;;;;;;;;;;4783750;29;20063;-73
2022/11/10 06:29:49;;;;;;;;;;;;;;;;;;4787701;29;20047;-73
2022/11/10 06:32:43;;;;;;;2.30;1.30;;;;;;;;;;4785159;29;19925;-73
2022/11/10 06:35:31;;;;;;;3.83;0.82;;;;;;;;;;4788532;29;20052;-72
2022/11/10 06:38:21;;;;;;;3.17;0.80;;;;;;;;;;4786388;29;20055;-73
2022/11/10 06:41:09;;;;;;;1.92;0.80;;;;;;;;;;4784545;29;20059;-73
2022/11/10 06:43:58;;;;;;;5.93;1.45;;;;;;;;;;4787499;29;20055;-71
2022/11/10 06:46:46;;;;;;;1.02;0.93;;;;;;;;;;4787042;29;20047;-73
2022/11/10 06:49:34;;;;;;;2.97;0.90;;;;;;;;;;4784333;29;20499;-73
2022/11/10 06:52:22;;;;;;;2.58;0.80;;;;;;;;;;4787870;29;20059;-73
2022/11/10 06:55:10;;;;;;;1.90;0.90;;;;;;;;;;4783129;30;20052;-72
2022/11/10 06:57:58;;;;;;;;;;;;;;;;;;4785042;29;20067;-73
2022/11/10 07:00:46;;;;;;;5.20;1.17;;;;;;;;;;4786618;29;19926;-73
2022/11/10 07:03:36;;;;;;;2.05;0.80;;;;;;;;;;4786431;29;20051;-73
2022/11/10 07:06:39;;;;;;;2.35;0.93;;;;;;;;;;4788500;29;20055;-73
2022/11/10 07:09:27;;;;;;;3.55;0.82;;;;;;;;;;4786866;29;20055;-73
2022/11/10 07:12:15;;;;;;;4.82;1.00;;;;;;;;;;4784278;29;20043;-72
2022/11/10 07:15:04;;;;;;;1.88;1.13;;;;;;;;;;4786583;29;20051;-73
2022/11/10 07:17:52;;;;;;;7.30;1.20;;;;;;;;;;4784886;29;20051;-73
2022/11/10 07:20:41;;;;;;;3.35;1.05;;;;;;;;;;4784089;29;20051;-72
2022/11/10 07:23:29;;;;;;;4.20;1.00;;;;;;;;;;4787035;29;20431;-71
2022/11/10 07:26:17;;;;;;;;;;;;;;;;;;4786164;29;20063;-71
2022/11/10 07:29:05;;;;;;;26.40;2.17;;;;;;;;;;4784060;29;19925;-71
2022/11/10 07:31:53;;;;;;;22.67;1.73;;;;;;;;;;4787326;29;20044;-73
2022/11/10 07:34:42;;;;;;;7.93;0.90;;;;;;;;;;4785476;29;20055;-73
2022/11/10 07:37:30;;;;;;;17.90;1.67;;;;;;;;;;4783639;29;20051;-72
2022/11/10 07:40:18;;;;;;;36.78;1.40;;;;;;;;;;4787155;29;20066;-72
2022/11/10 07:43:07;;;;;;;23.23;1.60;;;;;;;;;;4785037;29;20043;-72
2022/11/10 07:45:56;;;;;;;52.22;2.25;;;;;;;;;;4782853;30;20059;-73
2022/11/10 07:48:44;;;;;;;18.38;1.00;;;;;;;;;;4787198;29;20515;-72
2022/11/10 07:51:33;;;;;;;12.60;1.15;;;;;;;;;;4784822;29;20055;-73
2022/11/10 07:54:20;;;;;;;;;;;;;;;;;;4783510;29;20063;-73
2022/11/10 07:57:08;;;;;;;18.70;1.10;;;;;;;;;;4786993;29;20357;-73
2022/11/10 07:59:57;;;;;;;4.88;1.27;;;;;;;;;;4783837;29;20051;-73
2022/11/10 08:02:45;;;;;;;1.08;0.70;;;;;;;;;;4782365;29;20583;-72
2022/11/10 08:05:33;;;;;;;1.02;0.90;;;;;;;;;;4785849;29;20047;-73
2022/11/10 08:08:22;;;;;;;1.52;0.80;;;;;;;;;;4783710;29;20055;-72
2022/11/10 08:11:11;;;;;;;10.10;0.80;;;;;;;;;;4787493;29;20593;-72
2022/11/10 08:13:59;;;;;;;10.63;0.98;;;;;;;;;;4785939;29;20059;-72
2022/11/10 08:16:47;;;;;;;6.95;1.00;;;;;;;;;;4784025;29;20047;-73
2022/11/10 08:19:36;;;;;;;11.40;1.17;;;;;;;;;;4782154;29;20055;-72
2022/11/10 08:22:23;;;;;;;1.45;0.70;;;;;;;;;;4785048;29;20052;-72
2022/11/10 08:25:12;;;;;;;22.05;1.33;;;;;;;;;;4783773;29;20079;-73
2022/11/10 08:28:09;;;;;;;6.30;0.68;;;;;;;;;;4786667;29;20059;-72
2022/11/10 08:30:57;;;;;;;6.45;0.80;;;;;;;;;;4784019;29;20500;-72
2022/11/10 08:33:51;;;;;;;7.55;0.80;;;;;;;;;;4782497;29;20520;-72
2022/11/10 08:36:39;;;;;;;8.32;1.00;;;;;;;;;;4785946;29;20047;-72
2022/11/10 08:39:27;;;;;;;6.85;1.15;;;;;;;;;;4784365;29;20048;-72
2022/11/10 08:42:25;;;;;;;13.20;0.98;;;;;;;;;;4781911;29;20500;-72
2022/11/10 08:45:14;;;;;;;8.90;0.98;;;;;;;;;;4785373;29;20044;-72
2022/11/10 08:48:14;;;;;;;45.50;2.22;;;;;;;;;;4783282;29;20059;-72
2022/11/10 08:51:02;;;;;;;113.32;4.15;;;;;;;;;;4781489;30;20059;-72
2022/11/10 08:53:50;;;;;;;45.95;2.80;;;;;;;;;;4784063;30;20415;-72
2022/11/10 08:56:38;;;;;;;14.98;0.95;;;;;;;;;;4782806;30;20526;-75
2022/11/10 08:59:26;;;;;;;15.43;1.35;;;;;;;;;;4786153;30;20500;-72
2022/11/10 09:02:14;;;;;;;12.20;0.60;;;;;;;;;;4783833;30;20051;-74
2022/11/10 09:05:03;;;;;;;42.80;2.97;;;;;;;;;;4782523;30;20511;-73
2022/11/10 09:07:51;;;;;;;62.63;1.80;;;;;;;;;;4785292;30;20047;-73
2022/11/10 09:10:46;;;;;;;30.52;1.23;;;;;;;;;;4784318;30;20052;-75
2022/11/10 09:13:34;;;;;;;7.18;0.85;;;;;;;;;;4781718;30;20059;-74
2022/11/10 09:16:22;;;;;;;16.90;1.20;;;;;;;;;;4785020;30;20059;-74
2022/11/10 09:19:11;;;;;;;19.45;1.50;;;;;;;;;;4783353;30;20503;-73
2022/11/10 09:22:06;;;;;;;16.00;0.88;;;;;;;;;;4781442;30;20059;-73
2022/11/10 09:24:54;;;;;;;16.98;1.73;;;;;;;;;;4784478;30;20575;-72
2022/11/10 09:27:42;;;;;;;36.05;1.60;;;;;;;;;;4781812;30;20051;-72
2022/11/10 09:30:31;;;;;;;;;;;;;;;;;;4786838;30;20052;-71
2022/11/10 09:33:19;;;;;;;6.15;1.02;;;;;;;;;;4785015;30;19925;-73
2022/11/10 09:36:08;;;;;;;25.65;1.00;;;;;;;;;;4782623;30;20044;-73
2022/11/10 09:38:57;;;;;;;2.28;0.60;;;;;;;;;;4782350;30;20063;-72
2022/11/10 09:41:46;;;;;;;6.82;1.40;;;;;;;;;;4784296;30;20056;-73
2022/11/10 09:44:50;;;;;;;4.15;1.85;;;;;;;;;;4781908;30;20055;-73
2022/11/10 09:47:49;;;;;;;1.92;1.30;;;;;;;;;;4787504;29;20048;-74
2022/11/10 09:50:57;;;;;;;4.32;1.15;;;;;;;;;;4785976;29;20051;-73
2022/11/10 09:54:01;;;;;;;2.50;0.80;;;;;;;;;;4788138;29;20051;-72
2022/11/10 09:56:55;;;;;;;1.10;1.00;;;;;;;;;;4785926;29;20411;-74
2022/11/10 09:59:44;;;;;;;6.60;1.27;;;;;;;;;;4789591;29;20404;-74
2022/11/10 10:02:46;;;;;;;2.67;0.80;;;;;;;;;;4787011;29;20063;-74
2022/11/10 10:06:06;;;;;;;3.03;0.80;;;;;;;;;;4784719;29;20842;-73
2022/11/10 10:09:15;;;;;;;11.95;2.00;;;;;;;;;;4783474;29;20063;-72
2022/11/10 10:12:40;;;;;;;5.10;1.30;;;;;;;;;;4784425;29;20692;-73
2022/11/10 10:15:58;;;;;;;2.60;1.20;;;;;;;;;;4785684;29;20043;-73
2022/11/10 10:19:06;;;;;;;2.85;0.80;;;;;;;;;;4787885;29;20384;-73
2022/11/10 10:22:17;;;;;;;2.25;0.90;;;;;;;;;;4784393;30;20055;-73
2022/11/10 10:25:27;;;;;;;4.70;1.00;;;;;;;;;;4787940;29;20055;-74
2022/11/10 10:28:18;;;;;;;3.65;1.02;;;;;;;;;;4785203;29;20051;-74
2022/11/10 10:31:31;;;;;;;4.40;3.90;;;;;;;;;;4788652;29;20055;-74
2022/11/10 10:34:30;;;;;;;1.70;1.10;;;;;;;;;;4785323;29;20055;-80
2022/11/10 10:37:29;;;;;;;6.80;2.10;;;;;;;;;;4788507;29;20055;-73
2022/11/10 10:40:22;;;;;;;6.63;1.50;;;;;;;;;;4785973;29;20059;-74
2022/11/10 10:43:11;;;;;;;9.73;1.30;;;;;;;;;;4783089;29;20055;-73
2022/11/10 10:46:06;;;;;;;2.47;1.40;;;;;;;;;;4799297;29;20059;-74
2022/11/10 10:49:20;;;;;;;3.70;1.30;;;;;;;;;;4801610;29;20419;-73
2022/11/10 10:52:23;;;;;;;8.88;5.25;;;;;;;;;;4804385;29;20058;-75
2022/11/10 10:55:13;;;;;;;4.07;1.90;;;;;;;;;;4802647;29;20066;-73
2022/11/10 10:58:18;;;;;;;1.13;1.00;;;;;;;;;;4805358;29;20059;-74
2022/11/10 11:01:15;;;;;;;2.60;1.00;;;;;;;;;;4803534;29;20055;-74
2022/11/10 11:04:33;;;;;;;2.83;0.82;;;;;;;;;;4801855;29;20050;-74
2022/11/10 11:07:24;;;;;;;8.65;2.50;;;;;;;;;;4803443;29;20054;-75
2022/11/10 11:10:21;;;;;;;1.23;0.80;;;;;;;;;;4802458;29;20597;-76
2022/11/10 11:13:25;;;;;;;3.35;1.02;;;;;;;;;;4804610;29;20495;-74
2022/11/10 11:16:14;;;;;;;7.03;1.70;;;;;;;;;;4801740;29;20054;-76
2022/11/10 11:19:02;;;;;;;1.38;1.10;;;;;;;;;;4805004;29;20055;-74
2022/11/10 11:22:03;;;;;;;4.03;1.30;;;;;;;;;;4803276;29;20442;-77
2022/11/10 11:25:00;;;;;;;4.10;3.35;;;;;;;;;;4801869;29;20055;-75
2022/11/10 11:28:10;;;;;;;1.98;0.70;;;;;;;;;;4800628;29;20055;-77
2022/11/10 11:31:10;;;;;;;3.47;1.50;;;;;;;;;;4801518;29;20423;-76
2022/11/10 11:34:06;;;;;;;1.67;0.80;;;;;;;;;;4804463;29;20055;-75
2022/11/10 11:37:11;;;;;;;1.58;0.90;;;;;;;;;;4801825;29;20055;-74
2022/11/10 11:40:23;;;;;;;2.03;0.90;;;;;;;;;;4804869;29;20059;-74
2022/11/10 11:43:33;;;;;;;3.80;1.05;;;;;;;;;;4802236;29;20047;-75
2022/11/10 11:46:30;;;;;;;4.32;0.98;;;;;;;;;;4804000;29;20063;-75
2022/11/10 11:49:36;;;;;;;4.47;1.70;;;;;;;;;;4800664;29;20055;-74
2022/11/10 11:52:38;;;;;;;1.83;0.88;;;;;;;;;;4804732;29;20499;-75
2022/11/10 11:55:44;;;;;;;3.08;0.70;;;;;;;;;;4801260;29;20407;-75
2022/11/10 11:58:51;;;;;;;4.65;1.02;;;;;;;;;;4805738;29;20054;-77
2022/11/10 12:02:27;;;;;;;4.32;2.03;;;;;;;;;;4802125;29;20050;-75
2022/11/10 12:05:35;;;;;;;3.58;1.25;;;;;;;;;;4803532;29;20054;-75
2022/11/10 12:08:51;;;;;;;4.60;1.23;;;;;;;;;;4800349;29;20047;-80
2022/11/10 12:11:45;;;;;;;2.28;0.63;;;;;;;;;;4802062;29;20058;-75
2022/11/10 12:14:48;;;;;;;2.85;1.08;;;;;;;;;;4801112;29;20407;-74
2022/11/10 12:17:48;;;;;;;9.65;1.48;;;;;;;;;;4803614;29;20047;-77
2022/11/10 12:21:13;;;;;;;2.75;0.88;;;;;;;;;;4802432;29;20055;-79
2022/11/10 12:24:01;;;;;;;1.30;0.63;;;;;;;;;;4803634;29;20054;-75
2022/11/10 12:27:15;;;;;;;3.47;1.20;;;;;;;;;;4801035;29;20529;-78
2022/11/10 12:30:12;;;;;;;2.45;0.70;;;;;;;;;;4803604;29;20059;-74
2022/11/10 12:33:20;;;;;;;3.50;0.90;;;;;;;;;;4802065;29;20415;-75
2022/11/10 12:36:13;;;;;;;2.95;0.93;;;;;;;;;;4804382;29;20055;-76
2022/11/10 12:39:22;;;;;;;2.85;0.85;;;;;;;;;;4800977;29;20050;-74
2022/11/10 12:42:23;;;;;;;3.55;0.93;;;;;;;;;;4804529;29;20063;-75
2022/11/10 12:45:25;;;;;;;2.28;0.63;;;;;;;;;;4802561;29;20047;-74
2022/11/10 12:48:16;;;;;;;1.63;0.75;;;;;;;;;;4800087;29;20059;-74
2022/11/10 12:51:20;;;;;;;2.08;1.05;;;;;;;;;;4803366;29;20511;-75
2022/11/10 12:54:14;;;;;;;2.08;1.05;;;;;;;;;;4801368;29;20059;-76
2022/11/10 12:57:10;;;;;;;3.40;0.80;;;;;;;;;;4804146;29;20059;-81
2022/11/10 13:00:03;;;;;;;6.95;0.95;;;;;;;;;;4800983;29;20058;-77
2022/11/10 13:02:54;;;;;;;3.58;0.80;;;;;;;;;;4799768;29;20391;-76
2022/11/10 13:05:44;;;;;;;2.55;0.88;;;;;;;;;;4802726;29;20498;-75
2022/11/10 13:08:41;;;;;;;1.42;0.65;;;;;;;;;;4800460;29;20066;-75
2022/11/10 13:11:36;;;;;;;7.55;1.00;;;;;;;;;;4804082;29;20067;-74
2022/11/10 13:14:28;;;;;;;4.85;0.98;;;;;;;;;;4802236;29;20043;-77
2022/11/10 13:17:25;;;;;;;8.82;1.00;;;;;;;;;;4799743;29;20054;-74
2022/11/10 13:20:39;;;;;;;2.42;0.70;;;;;;;;;;4802775;29;20055;-75
2022/11/10 13:23:43;;;;;;;5.72;0.90;;;;;;;;;;4803427;29;20063;-75
2022/11/10 13:26:43;;;;;;;2.60;0.85;;;;;;;;;;4806278;29;20422;-75
2022/11/10 13:29:41;;;;;;;2.20;0.73;;;;;;;;;;4804149;29;20495;-75
2022/11/10 13:32:32;;;;;;;4.45;0.80;;;;;;;;;;4806511;29;20059;-75
2022/11/10 13:35:30;;;;;;;2.60;0.73;;;;;;;;;;4804664;29;20787;-75
2022/11/10 13:38:39;;;;;;;2.58;0.70;;;;;;;;;;4806596;29;20047;-75
2022/11/10 13:41:31;;;;;;;2.88;0.70;;;;;;;;;;4805183;29;20054;-75
2022/11/10 13:44:31;;;;;;;2.47;0.63;;;;;;;;;;4802909;29;20043;-76
2022/11/10 13:47:54;;;;;;;2.67;0.80;;;;;;;;;;4806587;29;20054;-75
2022/11/10 13:50:54;;;;;;;2.03;0.70;;;;;;;;;;4802779;29;20523;-74
2022/11/10 13:54:01;;;;;;;2.55;0.80;;;;;;;;;;4803668;29;20487;-76
2022/11/10 13:57:14;;;;;;;4.57;0.70;;;;;;;;;;4803035;29;20059;-75
2022/11/10 14:00:23;;;;;;;3.08;0.93;;;;;;;;;;4805601;29;20063;-75
2022/11/10 14:03:52;;;;;;;4.65;0.85;;;;;;;;;;4802941;29;20521;-76
2022/11/10 14:07:02;;;;;;;3.13;1.60;;;;;;;;;;4804485;29;20062;-74
2022/11/10 14:09:52;;;;;;;3.63;0.90;;;;;;;;;;4806581;29;20519;-74
2022/11/10 14:12:47;;;;;;;7.13;0.80;;;;;;;;;;4801778;29;20082;-74
2022/11/10 14:15:38;;;;;;;;;;;;;;;;;;4802979;29;20051;-73
2022/11/10 14:18:38;;;;;;;3.90;0.88;;;;;;;;;;4802543;29;19925;-74
2022/11/10 14:21:49;;;;;;;;;;;;;;;;;;4805169;29;20054;-76
2022/11/10 14:25:04;;;;;;;24.27;3.03;;;;;;;;;;4804666;29;20377;-76
2022/11/10 14:27:53;;;;;;;2.92;0.70;;;;;;;;;;4802723;29;20054;-76
2022/11/10 14:30:51;;;;;;;5.13;1.10;;;;;;;;;;4805868;29;20059;-76
2022/11/10 14:33:42;;;;;;;4.28;1.42;;;;;;;;;;4804012;29;20054;-75
2022/11/10 14:36:30;;;;;;;3.92;1.00;;;;;;;;;;4801415;29;20059;-77
2022/11/10 14:39:24;;;;;;;4.60;0.80;;;;;;;;;;4802048;29;20047;-76
2022/11/10 14:42:19;;;;;;;3.97;0.90;;;;;;;;;;4802669;29;20066;-75
2022/11/10 14:45:19;;;;;;;6.97;0.77;;;;;;;;;;4806352;29;20054;-79
2022/11/10 14:48:17;;;;;;;1.15;0.55;;;;;;;;;;4803877;29;20510;-76
2022/11/10 14:51:18;;;;;;;4.88;1.15;;;;;;;;;;4801962;29;20058;-77
2022/11/10 14:54:12;;;;;;;7.45;1.10;;;;;;;;;;4804371;29;20054;-76
2022/11/10 14:57:00;;;;;;;2.83;0.52;;;;;;;;;;4802424;29;20055;-76
2022/11/10 14:59:49;;;;;;;1.67;0.55;;;;;;;;;;4805650;29;20129;-77
2022/11/10 15:02:38;;;;;;;2.47;0.80;;;;;;;;;;4803204;29;20071;-74
2022/11/10 15:05:30;;;;;;;2.88;0.70;;;;;;;;;;4802147;29;20054;-74
2022/11/10 15:08:18;;;;;;;2.90;0.80;;;;;;;;;;4805432;29;20063;-75
2022/11/10 15:11:27;;;;;;;3.03;0.70;;;;;;;;;;4803415;29;20054;-75
2022/11/10 15:14:35;;;;;;;2.15;0.70;;;;;;;;;;4805337;29;20514;-75
2022/11/10 15:17:44;;;;;;;3.33;0.52;;;;;;;;;;4800680;29;20058;-78
2022/11/10 15:20:40;;;;;;;4.55;0.63;;;;;;;;;;4805354;29;20055;-75
2022/11/10 15:23:39;;;;;;;2.22;0.75;;;;;;;;;;4803222;29;20445;-75
2022/11/10 15:26:32;;;;;;;1.75;0.50;;;;;;;;;;4801545;29;20385;-75
2022/11/10 15:29:22;;;;;;;2.20;1.10;;;;;;;;;;4804374;29;20411;-75
2022/11/10 15:32:20;;;;;;;2.40;0.65;;;;;;;;;;4802819;29;20047;-76
2022/11/10 15:35:25;;;;;;;2.50;0.50;;;;;;;;;;4805926;29;20059;-76
2022/11/10 15:38:13;;;;;;;3.75;0.85;;;;;;;;;;4803181;29;20050;-77
2022/11/10 15:41:11;;;;;;;;;;;;;;;;;;4801484;29;20419;-76
2022/11/10 15:44:21;;;;;;;2.25;0.50;;;;;;;;;;4803067;29;20377;-74
2022/11/10 15:47:12;;;;;;;2.90;0.68;;;;;;;;;;4800731;29;20059;-75
2022/11/10 15:50:00;;;;;;;4.25;0.90;;;;;;;;;;4804423;29;20042;-74
2022/11/10 15:52:49;;;;;;;2.20;0.60;;;;;;;;;;4802599;29;20051;-75
2022/11/10 15:55:39;;;;;;;1.85;0.50;;;;;;;;;;4800600;29;20063;-74
2022/11/10 15:58:28;;;;;;;4.45;0.73;;;;;;;;;;4804228;29;20503;-75
2022/11/10 16:01:17;;;;;;;2.75;0.60;;;;;;;;;;4803017;29;20055;-74
2022/11/10 16:04:12;;;;;;;1.92;0.65;;;;;;;;;;4799704;29;20055;-74
2022/11/10 16:07:00;;;;;;;2.05;1.00;;;;;;;;;;4803075;29;20420;-76
2022/11/10 16:09:49;;;;;;;2.50;0.80;;;;;;;;;;4800161;29;20046;-76
2022/11/10 16:12:37;;;;;;;2.70;0.68;;;;;;;;;;4805158;29;20059;-77
2022/11/10 16:15:26;;;;;;;2.92;0.65;;;;;;;;;;4803065;29;20051;-73
2022/11/10 16:18:18;;;;;;;2.17;0.65;;;;;;;;;;4800910;29;20117;-77
2022/11/10 16:21:16;;;;;;;1.20;0.50;;;;;;;;;;4804850;29;20059;-78
2022/11/10 16:24:06;;;;;;;1.50;0.50;;;;;;;;;;4802454;29;20058;-75
2022/11/10 16:26:55;;;;;;;2.70;0.60;;;;;;;;;;4800676;29;20059;-78
2022/11/10 16:29:43;;;;;;;3.08;0.55;;;;;;;;;;4803858;29;20411;-75
2022/11/10 16:32:32;;;;;;;2.25;0.55;;;;;;;;;;4801991;29;20050;-76
2022/11/10 16:35:20;;;;;;;2.17;0.50;;;;;;;;;;4799879;29;20063;-76
2022/11/10 16:38:14;;;;;;;1.80;0.52;;;;;;;;;;4803201;29;20047;-76
2022/11/10 16:41:03;;;;;;;1.25;0.50;;;;;;;;;;4800906;29;20515;-75
2022/11/10 16:43:52;;;;;;;4.43;0.70;;;;;;;;;;4804500;29;20054;-78
2022/11/10 16:46:48;;;;;;;4.20;0.60;;;;;;;;;;4803041;29;20059;-76
2022/11/10 16:49:42;;;;;;;3.65;0.88;;;;;;;;;;4800814;29;20063;-78
2022/11/10 16:52:31;;;;;;;2.00;0.47;;;;;;;;;;4804105;29;20043;-76
2022/11/10 16:55:19;;;;;;;3.35;0.50;;;;;;;;;;4802889;29;20055;-78
2022/11/10 16:58:07;;;;;;;2.38;0.60;;;;;;;;;;4803840;29;20055;-74
2022/11/10 17:00:59;;;;;;;2.35;0.70;;;;;;;;;;4806194;29;20438;-76
2022/11/10 17:03:50;;;;;;;0.85;0.50;;;;;;;;;;4805044;29;20059;-77
2022/11/10 17:06:39;;;;;;;3.50;0.80;;;;;;;;;;4803647;29;20523;-78
2022/11/10 17:09:27;;;;;;;1.70;0.65;;;;;;;;;;4807200;29;20050;-80
2022/11/10 17:12:15;;;;;;;2.92;0.70;;;;;;;;;;4804470;29;20503;-77
2022/11/10 17:15:05;;;;;;;4.00;0.75;;;;;;;;;;4808426;29;20046;-81
2022/11/10 17:17:55;;;;;;;2.72;0.60;;;;;;;;;;4806231;29;20058;-78
2022/11/10 17:20:50;;;;;;;3.58;0.70;;;;;;;;;;4804087;29;20054;-76
2022/11/10 17:23:40;;;;;;;1.30;0.50;;;;;;;;;;4806070;29;20054;-78
2022/11/10 17:26:30;;;;;;;4.03;0.50;;;;;;;;;;4805199;29;20055;-78
2022/11/10 17:29:20;;;;;;;4.13;0.75;;;;;;;;;;4803872;29;20055;-76
2022/11/10 17:32:08;;;;;;;0.77;0.50;;;;;;;;;;4806986;29;20047;-74
2022/11/10 17:34:56;;;;;;;2.83;0.50;;;;;;;;;;4805233;29;20411;-74
2022/11/10 17:37:48;;;;;;;3.35;0.85;;;;;;;;;;4803166;29;20051;-73
2022/11/10 17:40:37;;;;;;;1.95;0.65;;;;;;;;;;4806290;29;20051;-77